createdAt,value
2023-03-22T00:01:19.855Z,8.92
2023-03-22T00:03:50.193Z,8.91
2023-03-22T00:06:19.347Z,8.88
2023-03-22T00:08:50.908Z,8.85
2023-03-22T00:11:19.839Z,8.83
2023-03-22T00:13:47.997Z,8.82
2023-03-22T00:16:16.100Z,8.82
2023-03-22T00:18:44.038Z,8.82
2023-03-22T00:21:14.502Z,8.84
2023-03-22T00:23:43.092Z,8.84
2023-03-22T00:26:12.490Z,8.85
2023-03-22T00:28:40.966Z,8.86
2023-03-22T00:31:10.826Z,8.85
2023-03-22T00:33:38.775Z,8.83
2023-03-22T00:36:09.763Z,8.78
2023-03-22T00:38:43.741Z,8.73
2023-03-22T00:41:17.990Z,8.66
2023-03-22T00:43:47.394Z,8.58
2023-03-22T00:46:17.963Z,8.55
2023-03-22T00:48:46.250Z,8.53
2023-03-22T00:51:15.728Z,8.52
2023-03-22T00:53:44.022Z,8.48
2023-03-22T00:56:16.134Z,8.44
2023-03-22T00:58:56.887Z,8.41
2023-03-22T01:01:24.802Z,8.38
2023-03-22T01:03:52.755Z,8.34
2023-03-22T01:06:21.688Z,8.29
2023-03-22T01:08:51.114Z,8.25
2023-03-22T01:11:19.122Z,8.22
2023-03-22T01:13:49.909Z,8.21
2023-03-22T01:16:18.325Z,8.17
2023-03-22T01:18:46.441Z,8.14
2023-03-22T01:21:14.718Z,8.11
2023-03-22T01:23:45.848Z,8.08
2023-03-22T01:26:13.919Z,8.06
2023-03-22T01:28:41.885Z,7.99
2023-03-22T01:31:09.906Z,7.89
2023-03-22T01:33:38.051Z,7.80
2023-03-22T01:36:06.675Z,7.75
2023-03-22T01:38:35.736Z,7.73
2023-03-22T01:41:03.988Z,7.72
2023-03-22T01:43:34.489Z,7.71
2023-03-22T01:46:02.784Z,7.71
2023-03-22T01:48:34.880Z,7.71
2023-03-22T01:51:04.760Z,7.70
2023-03-22T01:53:45.318Z,7.69
2023-03-22T01:56:14.036Z,7.70
2023-03-22T01:58:42.840Z,7.69
2023-03-22T02:01:18.486Z,7.67
2023-03-22T02:04:13.443Z,7.64
2023-03-22T02:06:45.370Z,7.58
2023-03-22T02:09:32.627Z,7.61
2023-03-22T02:12:34.419Z,7.59
2023-03-22T02:15:32.381Z,7.57
2023-03-22T02:18:33.094Z,7.54
2023-03-22T02:21:29.080Z,7.49
2023-03-22T02:24:09.381Z,7.50
2023-03-22T02:27:16.376Z,7.41
2023-03-22T02:29:56.557Z,7.29
2023-03-22T02:32:46.219Z,7.26
2023-03-22T02:35:23.469Z,7.28
2023-03-22T02:38:16.126Z,7.31
2023-03-22T02:40:47.070Z,7.34
2023-03-22T02:43:39.035Z,7.34
2023-03-22T02:46:11.529Z,7.31
2023-03-22T02:48:56.152Z,7.27
2023-03-22T02:51:33.039Z,7.23
2023-03-22T02:54:18.730Z,7.21
2023-03-22T02:56:54.175Z,7.19
2023-03-22T02:59:26.754Z,7.17
2023-03-22T03:02:03.914Z,7.18
2023-03-22T03:04:36.382Z,7.19
2023-03-22T03:07:09.572Z,7.20
2023-03-22T03:09:41.876Z,7.22
2023-03-22T03:12:22.301Z,7.24
2023-03-22T03:14:52.300Z,7.27
2023-03-22T03:17:20.684Z,7.20
2023-03-22T03:20:24.456Z,7.26
2023-03-22T03:23:13.890Z,7.22
2023-03-22T03:26:04.925Z,7.14
2023-03-22T03:28:43.571Z,7.10
2023-03-22T03:31:32.798Z,7.10
2023-03-22T03:34:31.002Z,7.10
2023-03-22T03:37:08.462Z,7.14
2023-03-22T03:39:43.600Z,7.15
2023-03-22T03:42:15.729Z,7.17
2023-03-22T03:44:44.241Z,7.22
2023-03-22T03:47:13.308Z,7.27
2023-03-22T03:49:42.433Z,7.35
2023-03-22T03:52:10.566Z,7.42
2023-03-22T03:54:38.482Z,7.45
2023-03-22T03:57:07.745Z,7.45
2023-03-22T03:59:35.969Z,7.43
2023-03-22T04:02:08.075Z,7.41
2023-03-22T04:04:36.107Z,7.40
2023-03-22T04:07:07.223Z,7.34
2023-03-22T04:09:40.539Z,7.28
2023-03-22T04:12:28.919Z,7.23
2023-03-22T04:15:24.238Z,7.19
2023-03-22T04:17:55.553Z,7.15
2023-03-22T04:20:26.605Z,7.05
2023-03-22T04:22:54.511Z,6.91
2023-03-22T04:25:23.040Z,6.77
2023-03-22T04:28:05.166Z,6.65
2023-03-22T04:30:36.515Z,6.57
2023-03-22T04:33:23.563Z,6.54
2023-03-22T04:36:10.732Z,6.59
2023-03-22T04:38:51.717Z,6.62
2023-03-22T04:41:22.535Z,6.65
2023-03-22T04:43:52.788Z,6.68
2023-03-22T04:46:21.508Z,6.77
2023-03-22T04:48:56.772Z,6.78
2023-03-22T04:51:26.308Z,6.77
2023-03-22T04:54:07.758Z,6.72
2023-03-22T04:56:38.560Z,6.68
2023-03-22T04:59:06.575Z,6.62
2023-03-22T05:01:35.495Z,6.61
2023-03-22T05:04:11.905Z,6.66
2023-03-22T05:06:41.159Z,6.72
2023-03-22T05:09:15.538Z,6.72
2023-03-22T05:11:44.067Z,6.70
2023-03-22T05:14:23.529Z,6.67
2023-03-22T05:16:51.575Z,6.67
2023-03-22T05:19:22.556Z,6.70
2023-03-22T05:21:58.041Z,6.71
2023-03-22T05:24:31.665Z,6.74
2023-03-22T05:27:01.202Z,6.75
2023-03-22T05:29:37.002Z,6.76
2023-03-22T05:32:12.546Z,6.79
2023-03-22T05:34:42.829Z,6.81
2023-03-22T05:37:30.114Z,6.81
2023-03-22T05:39:58.992Z,6.84
2023-03-22T05:42:37.202Z,6.84
2023-03-22T05:45:12.908Z,6.83
2023-03-22T05:47:41.575Z,6.86
2023-03-22T05:50:22.156Z,6.92
2023-03-22T05:52:50.658Z,7.01
2023-03-22T05:55:41.978Z,7.08
2023-03-22T05:58:11.016Z,7.13
2023-03-22T06:00:40.427Z,7.21
2023-03-22T06:03:21.216Z,7.31
2023-03-22T06:05:55.396Z,7.42
2023-03-22T06:08:32.749Z,7.53
2023-03-22T06:11:04.026Z,7.62
2023-03-22T06:13:32.687Z,7.68
2023-03-22T06:16:05.299Z,7.70
2023-03-22T06:18:38.002Z,7.72
2023-03-22T06:21:11.955Z,7.78
2023-03-22T06:23:40.114Z,7.86
2023-03-22T06:26:11.632Z,7.91
2023-03-22T06:28:41.051Z,7.91
2023-03-22T06:31:10.999Z,7.94
2023-03-22T06:33:55.938Z,7.91
2023-03-22T06:37:07.204Z,7.95
2023-03-22T06:39:42.494Z,7.99
2023-03-22T06:42:11.121Z,8.10
2023-03-22T06:44:44.000Z,8.14
2023-03-22T06:47:31.505Z,8.07
2023-03-22T06:50:19.816Z,8.16
2023-03-22T06:52:57.533Z,8.19
2023-03-22T06:55:37.517Z,8.34
2023-03-22T06:58:27.148Z,8.39
2023-03-22T07:01:03.937Z,8.48
2023-03-22T07:03:32.451Z,8.59
2023-03-22T07:06:14.318Z,8.70
2023-03-22T07:08:44.567Z,8.74
2023-03-22T07:11:13.352Z,8.77
2023-03-22T07:13:46.247Z,8.82
2023-03-22T07:16:19.913Z,8.85
2023-03-22T07:19:30.981Z,9.00
2023-03-22T07:22:21.340Z,9.22
2023-03-22T07:25:05.489Z,9.44
2023-03-22T07:27:33.929Z,9.59
2023-03-22T07:30:09.043Z,9.68
2023-03-22T07:32:42.580Z,9.76
2023-03-22T07:35:14.536Z,9.84
2023-03-22T07:37:57.055Z,9.93
2023-03-22T07:40:31.034Z,9.99
2023-03-22T07:43:12.253Z,10.15
2023-03-22T07:46:02.401Z,10.24
2023-03-22T07:51:46.710Z,10.44
2023-03-22T07:54:27.253Z,10.64
2023-03-22T07:57:02.252Z,10.77
2023-03-22T08:00:28.248Z,10.88
2023-03-22T08:03:23.634Z,10.96
2023-03-22T08:06:09.634Z,11.11
2023-03-22T08:09:14.326Z,11.20
2023-03-22T08:11:53.728Z,11.24
2023-03-22T08:14:39.213Z,11.24
2023-03-22T08:18:32.216Z,11.16
2023-03-22T08:23:42.153Z,11.33
2023-03-22T08:30:27.537Z,11.15
2023-03-22T08:32:59.219Z,11.21
2023-03-22T08:36:30.743Z,11.23
2023-03-22T08:40:25.290Z,11.16
2023-03-22T08:43:20.859Z,11.19
2023-03-22T08:45:56.210Z,11.18
2023-03-22T08:49:01.608Z,11.40
2023-03-22T08:51:37.828Z,11.60
2023-03-22T08:54:23.434Z,11.74
2023-03-22T08:56:56.043Z,11.92
2023-03-22T09:02:02.757Z,12.17
2023-03-22T09:05:12.577Z,12.44
2023-03-22T09:08:37.401Z,12.60
2023-03-22T09:11:24.117Z,12.82
2023-03-22T09:14:29.490Z,12.93
2023-03-22T09:17:31.019Z,13.16
2023-03-22T09:32:51.434Z,14.13
2023-03-22T09:42:52.626Z,14.67
2023-03-22T09:45:41.418Z,14.83
2023-03-22T09:48:37.472Z,14.97
2023-03-22T09:54:48.072Z,15.85
2023-03-22T09:57:39.870Z,16.19
2023-03-22T10:00:56.237Z,16.58
2023-03-22T10:08:50.307Z,18.30
2023-03-22T10:14:33.840Z,18.47
2023-03-22T10:17:14.584Z,18.55
2023-03-22T10:25:47.974Z,18.39
2023-03-22T10:28:34.534Z,18.57
2023-03-22T10:31:05.602Z,18.59
2023-03-22T10:33:37.888Z,18.42
2023-03-22T10:36:12.576Z,18.36
2023-03-22T10:38:48.227Z,18.42
2023-03-22T10:41:18.971Z,18.40
2023-03-22T10:43:52.041Z,18.35
2023-03-22T10:46:23.954Z,18.37
2023-03-22T10:48:57.350Z,18.72
2023-03-22T10:51:35.590Z,19.39
2023-03-22T10:54:05.784Z,19.90
2023-03-22T10:56:33.694Z,19.86
2023-03-22T10:59:01.783Z,19.78
2023-03-22T11:01:40.396Z,19.83
2023-03-22T11:04:14.978Z,19.80
2023-03-22T11:06:56.244Z,19.87
2023-03-22T11:09:25.103Z,20.33
2023-03-22T11:11:59.369Z,20.77
2023-03-22T11:14:32.362Z,21.31
2023-03-22T11:17:06.464Z,21.72
2023-03-22T11:19:37.450Z,22.15
2023-03-22T11:22:27.780Z,22.66
2023-03-22T11:24:57.020Z,22.93
2023-03-22T11:27:30.690Z,23.24
2023-03-22T11:30:08.019Z,23.51
2023-03-22T11:32:38.869Z,23.51
2023-03-22T11:35:21.167Z,23.44
2023-03-22T11:37:52.955Z,23.54
2023-03-22T11:40:34.097Z,23.71
2023-03-22T11:43:17.663Z,23.88
2023-03-22T11:45:48.375Z,23.99
2023-03-22T11:48:22.058Z,24.04
2023-03-22T11:50:53.548Z,24.24
2023-03-22T11:53:25.970Z,24.44
2023-03-22T11:55:57.809Z,24.53
2023-03-22T11:58:38.258Z,24.60
2023-03-22T12:01:11.362Z,24.58
2023-03-22T12:03:43.884Z,24.49
2023-03-22T12:06:22.910Z,24.63
2023-03-22T12:08:58.571Z,24.70
2023-03-22T12:11:39.700Z,24.79
2023-03-22T12:14:17.441Z,24.87
2023-03-22T12:17:14.307Z,24.77
2023-03-22T12:20:00.937Z,24.49
2023-03-22T12:22:34.987Z,24.44
2023-03-22T12:25:04.148Z,24.43
2023-03-22T12:27:39.574Z,24.42
2023-03-22T12:30:12.826Z,24.16
2023-03-22T12:32:46.785Z,23.98
2023-03-22T12:35:22.052Z,23.89
2023-03-22T12:37:55.951Z,23.93
2023-03-22T12:40:32.343Z,23.78
2023-03-22T12:43:45.792Z,23.56
2023-03-22T12:46:28.043Z,23.26
2023-03-22T12:49:14.063Z,23.04
2023-03-22T12:51:44.099Z,22.74
2023-03-22T12:54:15.512Z,22.59
2023-03-22T12:56:46.081Z,22.51
2023-03-22T12:59:33.007Z,22.74
2023-03-22T13:02:12.034Z,23.08
2023-03-22T13:04:42.762Z,23.38
2023-03-22T13:07:13.895Z,23.69
2023-03-22T13:10:21.710Z,24.08
2023-03-22T13:13:09.239Z,24.44
2023-03-22T13:15:42.610Z,24.48
2023-03-22T13:18:31.903Z,24.42
2023-03-22T13:21:16.648Z,24.25
2023-03-22T13:24:06.096Z,23.86
2023-03-22T13:26:47.431Z,23.77
2023-03-22T13:29:24.591Z,23.75
2023-03-22T13:32:21.173Z,23.81
2023-03-22T13:34:52.976Z,24.01
2023-03-22T13:37:38.074Z,24.24
2023-03-22T13:40:14.955Z,24.51
2023-03-22T13:42:43.046Z,24.68
2023-03-22T13:45:32.034Z,24.65
2023-03-22T13:48:09.899Z,24.29
2023-03-22T13:50:40.184Z,23.94
2023-03-22T13:53:21.670Z,23.74
2023-03-22T13:55:51.569Z,23.43
2023-03-22T13:58:53.091Z,23.13
2023-03-22T14:01:29.592Z,22.85
2023-03-22T14:04:01.382Z,22.43
2023-03-22T14:06:34.185Z,21.93
2023-03-22T14:09:11.470Z,21.55
2023-03-22T14:11:48.866Z,21.22
2023-03-22T14:14:23.387Z,21.29
2023-03-22T14:17:20.052Z,21.43
2023-03-22T14:19:50.198Z,21.59
